createdAt,value
2023-06-04T00:02:06.328Z,15.60
2023-06-04T00:04:33.056Z,15.54
2023-06-04T00:06:59.755Z,15.51
2023-06-04T00:09:26.376Z,15.49
2023-06-04T00:11:53.191Z,15.49
2023-06-04T00:14:19.969Z,15.45
2023-06-04T00:16:48.137Z,15.42
2023-06-04T00:19:14.864Z,15.40
2023-06-04T00:21:41.601Z,15.39
2023-06-04T00:24:08.294Z,15.39
2023-06-04T00:26:35.250Z,15.35
2023-06-04T00:29:02.820Z,15.33
2023-06-04T00:31:29.532Z,15.27
2023-06-04T00:33:57.569Z,15.24
2023-06-04T00:36:24.305Z,15.22
2023-06-04T00:38:51.040Z,15.19
2023-06-04T00:41:17.946Z,15.14
2023-06-04T00:43:58.175Z,15.09
2023-06-04T00:46:26.480Z,15.04
2023-06-04T00:48:53.700Z,14.99
2023-06-04T00:51:22.552Z,14.95
2023-06-04T00:53:49.963Z,14.94
2023-06-04T00:56:16.814Z,14.92
2023-06-04T00:58:46.458Z,14.91
2023-06-04T01:01:19.760Z,14.89
2023-06-04T01:03:50.830Z,14.86
2023-06-04T01:06:23.781Z,14.85
2023-06-04T01:08:51.188Z,14.81
2023-06-04T01:11:17.842Z,14.76
2023-06-04T01:13:44.651Z,14.72
2023-06-04T01:16:15.587Z,14.70
2023-06-04T01:18:42.924Z,14.64
2023-06-04T01:21:13.817Z,14.62
2023-06-04T01:23:47.993Z,14.59
2023-06-04T01:26:14.955Z,14.59
2023-06-04T01:28:43.265Z,14.58
2023-06-04T01:31:10.922Z,14.54
2023-06-04T01:33:38.337Z,14.50
2023-06-04T01:36:05.271Z,14.48
2023-06-04T01:38:31.908Z,14.50
2023-06-04T01:41:02.624Z,14.52
2023-06-04T01:43:29.808Z,14.53
2023-06-04T01:45:57.768Z,14.52
2023-06-04T01:48:24.495Z,14.52
2023-06-04T01:50:51.333Z,14.47
2023-06-04T01:53:18.172Z,14.43
2023-06-04T01:55:45.907Z,14.43
2023-06-04T01:58:13.930Z,14.42
2023-06-04T02:00:40.910Z,14.40
2023-06-04T02:03:09.746Z,14.37
2023-06-04T02:05:36.603Z,14.34
2023-06-04T02:08:05.895Z,14.34
2023-06-04T02:10:32.986Z,14.33
2023-06-04T02:13:01.694Z,14.29
2023-06-04T02:15:31.919Z,14.27
2023-06-04T02:18:00.397Z,14.22
2023-06-04T02:20:27.648Z,14.19
2023-06-04T02:22:55.660Z,14.16
2023-06-04T02:25:23.050Z,14.14
2023-06-04T02:27:49.773Z,14.11
2023-06-04T02:30:18.027Z,14.08
2023-06-04T02:32:51.518Z,14.09
2023-06-04T02:35:19.538Z,14.07
2023-06-04T02:37:46.339Z,14.05
2023-06-04T02:40:13.113Z,14.03
2023-06-04T02:42:39.745Z,13.99
2023-06-04T02:45:07.482Z,13.98
2023-06-04T02:47:34.176Z,13.94
2023-06-04T02:50:04.690Z,13.93
2023-06-04T02:52:31.679Z,13.93
2023-06-04T02:54:58.390Z,13.91
2023-06-04T02:57:25.077Z,13.89
2023-06-04T02:59:53.052Z,13.87
2023-06-04T03:02:19.683Z,13.86
2023-06-04T03:04:49.105Z,13.83
2023-06-04T03:07:21.692Z,13.79
2023-06-04T03:09:48.423Z,13.78
2023-06-04T03:12:15.232Z,13.80
2023-06-04T03:14:41.911Z,13.79
2023-06-04T03:17:11.521Z,13.75
2023-06-04T03:19:39.172Z,13.72
2023-06-04T03:22:09.744Z,13.70
2023-06-04T03:24:39.916Z,13.68
2023-06-04T03:27:08.283Z,13.68
2023-06-04T03:29:35.631Z,13.67
2023-06-04T03:32:02.667Z,13.63
2023-06-04T03:34:35.145Z,13.62
2023-06-04T03:37:02.414Z,13.62
2023-06-04T03:39:29.146Z,13.62
2023-06-04T03:41:57.276Z,13.60
2023-06-04T03:44:24.288Z,13.60
2023-06-04T03:46:51.027Z,13.60
2023-06-04T03:49:18.510Z,13.57
2023-06-04T03:51:45.197Z,13.55
2023-06-04T03:54:13.303Z,13.55
2023-06-04T03:56:40.517Z,13.57
2023-06-04T03:59:08.730Z,13.57
2023-06-04T04:01:35.638Z,13.56
2023-06-04T04:04:02.443Z,13.56
2023-06-04T04:06:29.212Z,13.52
2023-06-04T04:08:56.382Z,13.52
2023-06-04T04:11:23.088Z,13.52
2023-06-04T04:13:49.782Z,13.53
2023-06-04T04:16:17.878Z,13.51
2023-06-04T04:18:45.362Z,13.52
2023-06-04T04:21:12.411Z,13.52
2023-06-04T04:23:41.567Z,13.49
2023-06-04T04:26:11.316Z,13.48
2023-06-04T04:28:38.307Z,13.50
2023-06-04T04:31:05.566Z,13.49
2023-06-04T04:33:37.889Z,13.49
2023-06-04T04:36:04.688Z,13.47
2023-06-04T04:38:34.708Z,13.45
2023-06-04T04:41:01.939Z,13.46
2023-06-04T04:43:33.374Z,13.49
2023-06-04T04:46:00.564Z,13.51
2023-06-04T04:48:27.437Z,13.53
2023-06-04T04:50:55.701Z,13.54
2023-06-04T04:53:22.707Z,13.56
2023-06-04T04:55:49.776Z,13.57
2023-06-04T04:58:16.880Z,13.60
2023-06-04T05:00:43.625Z,13.63
2023-06-04T05:03:10.384Z,13.64
2023-06-04T05:05:37.160Z,13.67
2023-06-04T05:08:05.779Z,13.65
2023-06-04T05:10:32.876Z,13.66
2023-06-04T05:13:01.849Z,13.69
2023-06-04T05:15:28.711Z,13.72
2023-06-04T05:17:57.541Z,13.75
2023-06-04T05:20:24.340Z,13.75
2023-06-04T05:22:51.209Z,13.79
2023-06-04T05:25:19.516Z,13.81
2023-06-04T05:27:46.447Z,13.81
2023-06-04T05:30:14.605Z,13.82
2023-06-04T05:32:42.079Z,13.85
2023-06-04T05:35:09.841Z,13.88
2023-06-04T05:37:39.383Z,13.91
2023-06-04T05:40:08.252Z,13.94
2023-06-04T05:42:36.454Z,13.97
2023-06-04T05:45:03.277Z,14.02
2023-06-04T05:47:31.048Z,14.04
2023-06-04T05:49:58.232Z,14.06
2023-06-04T05:52:24.960Z,14.09
2023-06-04T05:54:52.338Z,14.13
2023-06-04T05:57:18.973Z,14.15
2023-06-04T05:59:47.106Z,14.18
2023-06-04T06:02:14.314Z,14.21
2023-06-04T06:04:41.497Z,14.24
2023-06-04T06:07:08.786Z,14.28
2023-06-04T06:09:36.667Z,14.29
2023-06-04T06:12:03.872Z,14.33
2023-06-04T06:14:31.014Z,14.37
2023-06-04T06:16:59.457Z,14.41
2023-06-04T06:19:26.063Z,14.44
2023-06-04T06:21:52.864Z,14.48
2023-06-04T06:24:19.481Z,14.53
2023-06-04T06:26:46.477Z,14.56
2023-06-04T06:29:13.213Z,14.60
2023-06-04T06:31:39.927Z,14.63
2023-06-04T06:34:08.127Z,14.66
2023-06-04T06:36:35.044Z,14.69
2023-06-04T06:39:01.962Z,14.74
2023-06-04T06:41:28.947Z,14.76
2023-06-04T06:43:55.660Z,14.79
2023-06-04T06:46:22.354Z,14.84
2023-06-04T06:48:49.649Z,14.87
2023-06-04T06:51:18.080Z,14.91
2023-06-04T06:53:44.785Z,14.95
2023-06-04T06:56:11.510Z,15.00
2023-06-04T06:58:38.135Z,15.05
2023-06-04T07:01:04.944Z,15.09
2023-06-04T07:03:32.442Z,15.14
2023-06-04T07:05:59.317Z,15.17
2023-06-04T07:08:27.438Z,15.22
2023-06-04T07:10:54.132Z,15.27
2023-06-04T07:13:20.915Z,15.33
2023-06-04T07:15:47.753Z,15.38
2023-06-04T07:18:14.623Z,15.43
2023-06-04T07:20:41.517Z,15.47
2023-06-04T07:23:08.230Z,15.52
2023-06-04T07:25:36.484Z,15.56
2023-06-04T07:28:05.268Z,15.60
2023-06-04T07:30:35.200Z,15.65
2023-06-04T07:33:01.876Z,15.70
2023-06-04T07:35:28.604Z,15.77
2023-06-04T07:37:55.532Z,15.83
2023-06-04T07:40:22.414Z,15.87
2023-06-04T07:42:50.558Z,15.94
2023-06-04T07:45:17.327Z,15.98
2023-06-04T07:47:44.250Z,16.02
2023-06-04T07:50:11.478Z,16.09
2023-06-04T07:52:38.152Z,16.14
2023-06-04T07:55:06.167Z,16.18
2023-06-04T07:57:33.490Z,16.22
2023-06-04T08:00:02.901Z,16.27
2023-06-04T08:02:29.584Z,16.32
2023-06-04T08:04:56.384Z,16.38
2023-06-04T08:07:23.205Z,16.43
2023-06-04T08:09:50.873Z,16.51
2023-06-04T08:12:17.610Z,16.54
2023-06-04T08:14:44.524Z,16.59
2023-06-04T08:17:12.514Z,16.67
2023-06-04T08:19:39.130Z,16.72
2023-06-04T08:22:06.193Z,16.77
2023-06-04T08:24:32.862Z,16.84
2023-06-04T08:26:59.680Z,16.93
2023-06-04T08:29:26.616Z,16.99
2023-06-04T08:31:53.278Z,17.06
2023-06-04T08:34:21.336Z,17.14
2023-06-04T08:36:48.008Z,17.21
2023-06-04T08:39:14.722Z,17.27
2023-06-04T08:41:44.819Z,17.36
2023-06-04T08:44:12.305Z,17.47
2023-06-04T08:46:41.043Z,17.57
2023-06-04T08:49:08.716Z,17.66
2023-06-04T08:51:41.282Z,17.74
2023-06-04T08:54:09.478Z,17.81
2023-06-04T08:56:36.902Z,17.89
2023-06-04T08:59:06.307Z,17.99
2023-06-04T09:01:34.816Z,18.06
2023-06-04T09:04:05.113Z,18.12
2023-06-04T09:06:33.702Z,18.20
2023-06-04T09:09:08.538Z,18.33
2023-06-04T09:11:40.353Z,18.38
2023-06-04T09:14:09.705Z,18.45
2023-06-04T09:16:43.937Z,18.56
2023-06-04T09:19:10.601Z,18.66
2023-06-04T09:21:47.390Z,18.72
2023-06-04T09:24:15.601Z,18.78
2023-06-04T09:26:42.235Z,18.82
2023-06-04T09:29:08.893Z,18.90
2023-06-04T09:31:38.250Z,18.95
2023-06-04T09:34:05.263Z,19.00
2023-06-04T09:36:32.514Z,19.08
2023-06-04T09:38:59.240Z,19.13
2023-06-04T09:41:27.534Z,19.18
2023-06-04T09:44:03.913Z,19.25
2023-06-04T09:46:31.601Z,19.29
2023-06-04T09:49:02.326Z,19.35
2023-06-04T09:51:30.113Z,19.44
2023-06-04T09:53:58.862Z,19.53
2023-06-04T09:56:28.515Z,19.58
2023-06-04T09:58:57.400Z,19.64
2023-06-04T10:01:25.132Z,19.72
2023-06-04T10:03:53.779Z,19.75
2023-06-04T10:06:22.198Z,19.82
2023-06-04T10:08:50.915Z,19.89
2023-06-04T10:11:24.876Z,19.96
2023-06-04T10:13:58.134Z,20.03
2023-06-04T10:16:34.252Z,20.08
2023-06-04T10:19:02.269Z,20.12
2023-06-04T10:21:32.797Z,20.17
2023-06-04T10:24:00.198Z,20.25
2023-06-04T10:26:27.297Z,20.30
2023-06-04T10:28:57.721Z,20.34
2023-06-04T10:31:24.726Z,20.42
2023-06-04T10:33:55.167Z,20.51
2023-06-04T10:36:23.262Z,20.58
2023-06-04T10:38:54.385Z,20.63
2023-06-04T10:41:23.847Z,20.68
2023-06-04T10:43:52.673Z,20.73
2023-06-04T10:46:21.389Z,20.78
2023-06-04T10:48:49.758Z,20.82
2023-06-04T10:51:17.185Z,20.85
2023-06-04T10:53:44.008Z,20.88
2023-06-04T10:56:11.088Z,20.92
2023-06-04T10:58:37.870Z,20.97
2023-06-04T11:01:04.714Z,21.02
2023-06-04T11:03:49.256Z,21.07
2023-06-04T11:06:17.848Z,21.13
2023-06-04T11:08:44.713Z,21.19
2023-06-04T11:11:13.756Z,21.25
2023-06-04T11:13:40.541Z,21.28
2023-06-04T11:16:17.295Z,21.30
2023-06-04T11:18:55.687Z,21.33
2023-06-04T11:21:22.420Z,21.40
2023-06-04T11:23:49.231Z,21.49
2023-06-04T11:26:16.194Z,21.55
2023-06-04T11:28:43.957Z,21.58
2023-06-04T11:31:10.925Z,21.63
2023-06-04T11:33:45.506Z,21.69
2023-06-04T11:36:23.516Z,21.72
2023-06-04T11:38:55.590Z,21.76
2023-06-04T11:41:22.370Z,21.83
2023-06-04T11:43:49.332Z,21.87
2023-06-04T11:46:16.452Z,21.92
2023-06-04T11:48:45.484Z,21.93
2023-06-04T11:51:13.140Z,21.96
2023-06-04T11:53:40.417Z,22.00
2023-06-04T11:56:07.520Z,22.03
2023-06-04T11:58:34.672Z,22.06
2023-06-04T12:01:01.582Z,22.13
2023-06-04T12:03:38.613Z,22.18
2023-06-04T12:06:13.922Z,22.18
2023-06-04T12:08:50.877Z,22.19
2023-06-04T12:11:29.483Z,22.23
2023-06-04T12:13:56.997Z,22.27
2023-06-04T12:16:23.766Z,22.32
2023-06-04T12:18:52.051Z,22.36
2023-06-04T12:21:23.865Z,22.38
2023-06-04T12:23:51.275Z,22.41
2023-06-04T12:26:29.694Z,22.45
2023-06-04T12:29:00.733Z,22.50
2023-06-04T12:31:33.104Z,22.53
2023-06-04T12:34:01.097Z,22.57
2023-06-04T12:36:31.214Z,22.59
2023-06-04T12:39:00.659Z,22.62
2023-06-04T12:41:27.585Z,22.66
2023-06-04T12:43:54.726Z,22.67
2023-06-04T12:46:21.641Z,22.70
2023-06-04T12:48:48.404Z,22.74
2023-06-04T12:51:15.113Z,22.76
2023-06-04T12:53:43.626Z,22.78
2023-06-04T12:56:11.132Z,22.81
2023-06-04T12:58:38.060Z,22.82
2023-06-04T13:01:05.050Z,22.83
2023-06-04T13:03:32.477Z,22.86
2023-06-04T13:05:59.389Z,22.89
2023-06-04T13:08:27.280Z,22.93
2023-06-04T13:10:55.405Z,22.98
2023-06-04T13:13:22.225Z,23.01
2023-06-04T13:15:48.909Z,23.06
2023-06-04T13:18:17.150Z,23.10
2023-06-04T13:20:44.340Z,23.12
2023-06-04T13:23:13.134Z,23.13
2023-06-04T13:25:39.897Z,23.15
2023-06-04T13:28:09.115Z,23.21
2023-06-04T13:30:37.885Z,23.25
2023-06-04T13:33:05.254Z,23.28
2023-06-04T13:35:32.490Z,23.28
2023-06-04T13:37:59.256Z,23.32
2023-06-04T13:40:26.206Z,23.36
2023-06-04T13:42:52.986Z,23.39
2023-06-04T13:45:21.514Z,23.41
2023-06-04T13:47:49.274Z,23.44
2023-06-04T13:50:16.473Z,23.48
2023-06-04T13:52:43.306Z,23.50
2023-06-04T13:55:10.495Z,23.52
2023-06-04T13:57:37.513Z,23.55
2023-06-04T14:00:05.805Z,23.58
2023-06-04T14:02:34.078Z,23.63
2023-06-04T14:05:01.184Z,23.67
2023-06-04T14:07:27.870Z,23.67
2023-06-04T14:09:55.985Z,23.67
2023-06-04T14:12:23.136Z,23.70
2023-06-04T14:14:49.930Z,23.72
2023-06-04T14:17:17.039Z,23.75
2023-06-04T14:19:45.436Z,23.75
2023-06-04T14:22:13.043Z,23.76
2023-06-04T14:24:41.881Z,23.79
2023-06-04T14:27:08.888Z,23.84
2023-06-04T14:29:36.451Z,23.85
2023-06-04T14:32:03.368Z,23.87
2023-06-04T14:34:30.594Z,23.90
2023-06-04T14:37:00.744Z,23.92
2023-06-04T14:39:27.887Z,23.95
2023-06-04T14:41:54.855Z,23.98
2023-06-04T14:44:22.188Z,23.99
2023-06-04T14:46:51.097Z,24.02
2023-06-04T14:49:18.033Z,24.01
2023-06-04T14:51:44.692Z,24.02
2023-06-04T14:54:12.720Z,24.00
2023-06-04T14:56:39.453Z,24.02
2023-06-04T14:59:12.350Z,24.03
2023-06-04T15:01:39.823Z,24.05
2023-06-04T15:04:06.508Z,24.07
2023-06-04T15:06:33.393Z,24.09
2023-06-04T15:09:00.629Z,24.12
2023-06-04T15:11:28.905Z,24.14
2023-06-04T15:13:55.665Z,24.16
2023-06-04T15:16:22.712Z,24.17
2023-06-04T15:18:52.476Z,24.19
2023-06-04T15:21:19.265Z,24.22
2023-06-04T15:23:49.509Z,24.25
2023-06-04T15:26:17.483Z,24.27
2023-06-04T15:28:45.842Z,24.26
2023-06-04T15:31:12.637Z,24.25
2023-06-04T15:33:39.541Z,24.28
2023-06-04T15:36:06.878Z,24.29
2023-06-04T15:38:34.511Z,24.30
2023-06-04T15:41:01.974Z,24.29
2023-06-04T15:43:28.693Z,24.28
2023-06-04T15:45:56.934Z,24.28
2023-06-04T15:48:23.661Z,24.27
2023-06-04T15:50:50.995Z,24.28
2023-06-04T15:53:18.612Z,24.28
2023-06-04T15:55:45.666Z,24.28
2023-06-04T15:58:12.335Z,24.30
2023-06-04T16:00:39.058Z,24.31
2023-06-04T16:03:07.163Z,24.32
2023-06-04T16:05:33.951Z,24.31
2023-06-04T16:08:01.172Z,24.31
2023-06-04T16:10:27.956Z,24.27
2023-06-04T16:12:54.913Z,24.23
2023-06-04T16:15:21.591Z,24.22
2023-06-04T16:17:49.706Z,24.18
2023-06-04T16:20:17.874Z,24.20
2023-06-04T16:22:44.578Z,24.21
2023-06-04T16:25:11.314Z,24.23
2023-06-04T16:27:38.003Z,24.22
2023-06-04T16:30:05.832Z,24.24
2023-06-04T16:32:32.800Z,24.25
2023-06-04T16:35:01.433Z,24.25
2023-06-04T16:37:30.067Z,24.23
2023-06-04T16:39:57.250Z,24.21
2023-06-04T16:42:25.806Z,24.17
2023-06-04T16:44:52.618Z,24.15
2023-06-04T16:47:19.476Z,24.14
2023-06-04T16:49:46.269Z,24.14
2023-06-04T16:52:12.954Z,24.13
2023-06-04T16:54:43.019Z,24.09
2023-06-04T16:57:10.054Z,24.08
2023-06-04T16:59:36.772Z,24.04
2023-06-04T17:02:04.845Z,24.03
2023-06-04T17:04:31.533Z,23.99
2023-06-04T17:06:58.222Z,23.96
2023-06-04T17:09:24.887Z,23.91
2023-06-04T17:11:53.090Z,23.85
2023-06-04T17:14:20.059Z,23.78
2023-06-04T17:16:47.131Z,23.70
2023-06-04T17:19:13.878Z,23.61
2023-06-04T17:21:40.610Z,23.57
2023-06-04T17:24:08.513Z,23.52
2023-06-04T17:26:36.207Z,23.49
2023-06-04T17:29:05.185Z,23.46
2023-06-04T17:31:32.205Z,23.37
2023-06-04T17:33:58.847Z,23.28
2023-06-04T17:36:25.675Z,23.20
2023-06-04T17:38:52.378Z,23.16
2023-06-04T17:41:19.203Z,23.11
2023-06-04T17:43:46.500Z,23.05
2023-06-04T17:46:14.594Z,23.00
2023-06-04T17:48:41.325Z,22.96
2023-06-04T17:51:08.150Z,22.94
2023-06-04T17:53:34.823Z,22.91
2023-06-04T17:56:02.250Z,22.87
2023-06-04T17:58:30.260Z,22.86
2023-06-04T18:00:57.621Z,22.83
2023-06-04T18:03:25.809Z,22.76
2023-06-04T18:05:52.476Z,22.71
2023-06-04T18:08:22.256Z,22.67
2023-06-04T18:10:49.044Z,22.59
2023-06-04T18:13:16.414Z,22.53
2023-06-04T18:15:44.128Z,22.46
2023-06-04T18:18:10.881Z,22.42
2023-06-04T18:20:39.078Z,22.38
2023-06-04T18:23:07.273Z,22.32
2023-06-04T18:25:34.133Z,22.25
2023-06-04T18:28:01.008Z,22.20
2023-06-04T18:30:27.934Z,22.15
2023-06-04T18:32:54.986Z,22.06
2023-06-04T18:35:21.786Z,22.03
2023-06-04T18:37:50.035Z,21.98
2023-06-04T18:40:18.331Z,21.94
2023-06-04T18:42:45.525Z,21.88
2023-06-04T18:45:14.328Z,21.78
2023-06-04T18:47:41.029Z,21.67
2023-06-04T18:50:08.409Z,21.56
2023-06-04T18:52:39.069Z,21.48
2023-06-04T18:55:09.307Z,21.46
2023-06-04T18:57:36.275Z,21.40
2023-06-04T19:00:08.373Z,21.32
2023-06-04T19:02:37.318Z,21.27
2023-06-04T19:05:04.846Z,21.10
2023-06-04T19:07:31.674Z,20.97
2023-06-04T19:09:59.511Z,20.85
2023-06-04T19:12:27.926Z,20.77
2023-06-04T19:14:55.543Z,20.71
2023-06-04T19:17:23.137Z,20.66
2023-06-04T19:19:53.101Z,20.60
2023-06-04T19:22:20.409Z,20.50
2023-06-04T19:24:48.723Z,20.45
2023-06-04T19:27:17.704Z,20.32
2023-06-04T19:29:46.833Z,20.23
2023-06-04T19:32:13.989Z,20.13
2023-06-04T19:34:41.001Z,20.03
2023-06-04T19:37:07.888Z,19.95
2023-06-04T19:39:34.740Z,19.89
2023-06-04T19:42:01.438Z,19.82
2023-06-04T19:44:28.279Z,19.78
2023-06-04T19:46:56.567Z,19.70
2023-06-04T19:49:24.441Z,19.61
2023-06-04T19:51:51.391Z,19.53
2023-06-04T19:54:17.999Z,19.50
2023-06-04T19:56:46.730Z,19.46
2023-06-04T19:59:13.475Z,19.38
2023-06-04T20:01:40.183Z,19.34
2023-06-04T20:04:08.854Z,19.32
2023-06-04T20:06:36.024Z,19.25
2023-06-04T20:09:04.805Z,19.14
2023-06-04T20:11:33.008Z,19.03
2023-06-04T20:14:00.037Z,19.01
2023-06-04T20:16:26.973Z,18.95
2023-06-04T20:18:53.653Z,18.91
2023-06-04T20:21:22.003Z,18.84
2023-06-04T20:23:53.310Z,18.76
2023-06-04T20:26:21.594Z,18.69
2023-06-04T20:28:48.751Z,18.67
2023-06-04T20:31:15.669Z,18.62
2023-06-04T20:33:42.461Z,18.56
2023-06-04T20:36:09.903Z,18.53
2023-06-04T20:38:38.339Z,18.47
2023-06-04T20:41:06.007Z,18.40
2023-06-04T20:43:46.392Z,18.35
2023-06-04T20:46:13.628Z,18.26
2023-06-04T20:48:40.427Z,18.17
2023-06-04T20:51:07.711Z,18.13
2023-06-04T20:53:34.871Z,18.11
2023-06-04T20:56:03.511Z,18.05
2023-06-04T20:58:30.794Z,17.97
2023-06-04T21:00:57.748Z,17.86
2023-06-04T21:03:26.265Z,17.78
2023-06-04T21:05:53.014Z,17.75
2023-06-04T21:08:19.771Z,17.72
2023-06-04T21:10:46.644Z,17.70
2023-06-04T21:13:14.817Z,17.65
2023-06-04T21:15:41.653Z,17.55
2023-06-04T21:18:08.449Z,17.49
2023-06-04T21:20:35.130Z,17.42
2023-06-04T21:23:02.233Z,17.34
2023-06-04T21:25:29.129Z,17.28
2023-06-04T21:27:55.841Z,17.19
2023-06-04T21:30:23.962Z,17.17
2023-06-04T21:32:51.043Z,17.12
2023-06-04T21:35:17.843Z,17.09
2023-06-04T21:37:45.868Z,17.04
2023-06-04T21:40:12.846Z,17.02
2023-06-04T21:42:39.569Z,16.97
2023-06-04T21:45:07.884Z,16.91
2023-06-04T21:47:36.636Z,16.87
2023-06-04T21:50:03.757Z,16.84
2023-06-04T21:52:30.685Z,16.74
2023-06-04T21:54:57.929Z,16.63
2023-06-04T21:57:24.621Z,16.62
2023-06-04T21:59:51.553Z,16.59
2023-06-04T22:02:18.423Z,16.54
2023-06-04T22:04:46.637Z,16.41
2023-06-04T22:07:13.282Z,16.36
2023-06-04T22:09:40.057Z,16.33
2023-06-04T22:12:07.802Z,16.23
2023-06-04T22:14:36.407Z,16.18
2023-06-04T22:17:03.247Z,16.20
2023-06-04T22:19:29.947Z,16.14
2023-06-04T22:21:58.002Z,16.14
2023-06-04T22:24:24.708Z,16.12
2023-06-04T22:26:51.607Z,16.08
2023-06-04T22:29:18.234Z,16.07
2023-06-04T22:31:45.677Z,16.05
2023-06-04T22:34:12.442Z,16.03
2023-06-04T22:36:39.335Z,15.97
2023-06-04T22:39:07.450Z,15.90
2023-06-04T22:41:34.157Z,15.88
2023-06-04T22:44:00.870Z,15.83
2023-06-04T22:46:27.638Z,15.80
2023-06-04T22:48:54.349Z,15.74
2023-06-04T22:51:22.156Z,15.62
2023-06-04T22:53:48.904Z,15.55
2023-06-04T22:56:17.095Z,15.57
2023-06-04T22:58:43.921Z,15.52
2023-06-04T23:01:11.071Z,15.48
2023-06-04T23:03:37.935Z,15.47
2023-06-04T23:06:04.817Z,15.43
2023-06-04T23:08:31.559Z,15.37
2023-06-04T23:10:59.460Z,15.26
2023-06-04T23:13:27.916Z,15.19
2023-06-04T23:15:54.855Z,15.12
2023-06-04T23:18:21.524Z,15.11
2023-06-04T23:20:48.239Z,15.07
2023-06-04T23:23:14.986Z,14.99
2023-06-04T23:25:41.928Z,14.94
2023-06-04T23:28:08.672Z,14.87
2023-06-04T23:30:36.800Z,14.81
2023-06-04T23:33:06.397Z,14.77
2023-06-04T23:35:33.463Z,14.75
2023-06-04T23:38:00.180Z,14.66
2023-06-04T23:40:27.039Z,14.66
2023-06-04T23:42:53.774Z,14.67
2023-06-04T23:45:20.946Z,14.67
2023-06-04T23:47:49.342Z,14.62
2023-06-04T23:50:16.322Z,14.57
2023-06-04T23:52:42.972Z,14.55
2023-06-04T23:55:10.361Z,14.53
2023-06-04T23:57:37.082Z,14.52
